Terminal Aerodrome Forecast
Issued by NWS Atlanta, GA

Home | Current Version | Previous Version | Text Only | Print | Product List | Glossary On
Versions: 1 2 3 4 5 6 7 8 9 10 11 12 13 14 15 16 17 18 19 20 21 22 23 24 25 26 27 28 29
000
FTUS42 KFFC 041731
TAFMCN
TAF
KMCN 041731Z 0418/0518 26010G15KT P6SM SCT025 BKN040
      TEMPO 0418/0422 3SM TSRA BR BKN025CB
     FM042200 26006KT P6SM VCTS BKN045CB
     FM050000 VRB03KT P6SM BKN045
     FM051000 27004KT 5SM BR BKN025
     FM051400 27003KT P6SM BKN035=

USA.gov is the U.S. government's official web portal to all federal, state and local government web resources and services.